createdAt,value
2024-04-15T00:00:00.255Z,92.20
2024-04-15T00:03:08.122Z,92.20
2024-04-15T00:06:10.115Z,91.70
2024-04-15T00:13:08.808Z,92.80
2024-04-15T00:16:12.246Z,93.60
2024-04-15T00:19:17.876Z,93.20
2024-04-15T00:22:19.868Z,93.80
2024-04-15T00:25:24.708Z,93.80
2024-04-15T00:28:29.461Z,93.80
2024-04-15T00:34:40.641Z,93.00
2024-04-15T00:37:42.319Z,94.00
2024-04-15T00:40:44.483Z,94.20
2024-04-15T00:43:46.206Z,94.20
2024-04-15T00:46:48.237Z,94.50
2024-04-15T00:49:51.161Z,94.50
2024-04-15T00:52:55.850Z,94.50
2024-04-15T00:56:01.455Z,94.60
2024-04-15T00:59:03.826Z,94.90
2024-04-15T01:02:08.682Z,95.30
2024-04-15T01:05:13.902Z,94.80
2024-04-15T01:08:16.625Z,95.20
2024-04-15T01:11:18.500Z,95.00
2024-04-15T01:14:20.810Z,94.90
2024-04-15T01:17:23.217Z,95.00
2024-04-15T01:20:25.102Z,95.70
2024-04-15T01:23:39.140Z,94.90
2024-04-15T01:26:47.194Z,95.60
2024-04-15T01:29:48.904Z,95.60
2024-04-15T01:32:51.021Z,95.30
2024-04-15T01:35:52.756Z,95.40
2024-04-15T01:38:54.680Z,95.30
2024-04-15T01:41:56.511Z,95.70
2024-04-15T01:44:58.209Z,95.50
2024-04-15T01:48:00.590Z,95.40
2024-04-15T01:51:02.351Z,95.70
2024-04-15T01:54:04.114Z,95.70
2024-04-15T01:57:05.859Z,96.10
2024-04-15T02:00:08.230Z,95.90
2024-04-15T02:03:10.120Z,95.90
2024-04-15T02:06:12.189Z,96.30
2024-04-15T02:09:13.898Z,96.40
2024-04-15T02:12:15.587Z,96.50
2024-04-15T02:15:17.463Z,96.50
2024-04-15T02:18:19.304Z,96.50
2024-04-15T02:21:21.067Z,96.70
2024-04-15T02:24:22.815Z,96.50
2024-04-15T02:27:24.554Z,96.70
2024-04-15T02:30:26.272Z,96.70
2024-04-15T02:33:27.953Z,96.80
2024-04-15T02:36:29.688Z,96.90
2024-04-15T02:39:31.369Z,96.80
2024-04-15T02:42:33.075Z,96.80
2024-04-15T02:45:34.812Z,96.80
2024-04-15T02:48:37.073Z,96.90
2024-04-15T02:51:38.765Z,97.00
2024-04-15T02:54:40.524Z,97.10
2024-04-15T02:57:42.295Z,97.20
2024-04-15T03:00:44.207Z,97.30
2024-04-15T03:03:48.931Z,97.20
2024-04-15T03:06:53.375Z,97.50
2024-04-15T03:09:55.588Z,97.40
2024-04-15T03:12:57.425Z,97.40
2024-04-15T03:16:05.414Z,97.40
2024-04-15T03:19:17.193Z,97.50
2024-04-15T03:22:19.155Z,97.50
2024-04-15T03:25:22.152Z,97.60
2024-04-15T03:28:23.944Z,97.70
2024-04-15T03:31:26.072Z,98.00
2024-04-15T03:34:27.782Z,97.80
2024-04-15T03:37:29.490Z,97.80
2024-04-15T03:40:31.189Z,97.80
2024-04-15T03:43:32.880Z,97.80
2024-04-15T03:46:34.676Z,97.80
2024-04-15T03:49:36.443Z,98.00
2024-04-15T03:52:38.169Z,98.00
2024-04-15T03:55:39.908Z,98.10
2024-04-15T03:58:41.612Z,98.10
2024-04-15T04:01:43.497Z,99.80
2024-04-15T04:04:48.444Z,98.30
2024-04-15T04:07:50.336Z,98.40
2024-04-15T04:10:52.203Z,98.20
2024-04-15T04:13:53.968Z,98.20
2024-04-15T04:16:55.682Z,98.30
2024-04-15T04:19:57.397Z,98.30
2024-04-15T04:22:59.263Z,98.40
2024-04-15T04:26:00.950Z,98.60
2024-04-15T04:29:02.812Z,98.60
2024-04-15T04:32:05.337Z,98.80
2024-04-15T04:35:07.389Z,98.40
2024-04-15T04:38:09.723Z,98.70
2024-04-15T04:41:11.487Z,98.50
2024-04-15T04:44:13.306Z,98.90
2024-04-15T04:47:17.166Z,98.70
2024-04-15T04:50:18.946Z,98.70
2024-04-15T04:53:20.657Z,98.90
2024-04-15T04:56:22.803Z,98.90
2024-04-15T04:59:26.770Z,98.80
2024-04-15T05:02:28.549Z,99.00
2024-04-15T05:05:30.280Z,98.80
2024-04-15T05:08:31.955Z,99.00
2024-04-15T05:11:34.155Z,99.30
2024-04-15T05:14:35.905Z,99.00
2024-04-15T05:17:37.798Z,98.80
2024-04-15T05:20:39.578Z,99.10
2024-04-15T05:23:42.089Z,98.90
2024-04-15T05:26:49.749Z,98.90
2024-04-15T05:29:51.483Z,98.20
2024-04-15T05:32:53.289Z,98.90
2024-04-15T05:35:55.226Z,98.90
2024-04-15T05:38:56.918Z,98.80
2024-04-15T05:41:58.986Z,98.80
2024-04-15T05:45:00.687Z,98.70
2024-04-15T05:48:02.901Z,98.80
2024-04-15T05:51:04.989Z,98.60
2024-04-15T05:54:06.769Z,98.70
2024-04-15T05:57:08.527Z,98.50
2024-04-15T06:00:13.126Z,98.30
2024-04-15T06:03:14.858Z,98.10
2024-04-15T06:06:16.567Z,98.20
2024-04-15T06:09:18.368Z,98.50
2024-04-15T06:12:20.499Z,97.80
2024-04-15T06:15:22.227Z,97.90
2024-04-15T06:18:23.937Z,98.50
2024-04-15T06:21:27.456Z,98.80
2024-04-15T06:24:29.305Z,98.70
2024-04-15T06:27:31.560Z,98.80
2024-04-15T06:30:33.271Z,98.90
2024-04-15T06:33:35.107Z,98.80
2024-04-15T06:36:37.014Z,98.70
2024-04-15T06:39:38.763Z,98.50
2024-04-15T06:42:40.582Z,98.60
2024-04-15T06:45:42.456Z,98.70
2024-04-15T06:48:44.847Z,98.20
2024-04-15T06:51:46.706Z,98.20
2024-04-15T06:54:48.977Z,98.40
2024-04-15T06:57:50.894Z,99.20
2024-04-15T07:00:52.980Z,99.40
2024-04-15T07:03:57.919Z,99.40
2024-04-15T07:07:00.105Z,98.80
2024-04-15T07:10:01.977Z,98.60
2024-04-15T07:13:04.219Z,98.50
2024-04-15T07:16:06.360Z,98.40
2024-04-15T07:19:08.246Z,98.40
2024-04-15T07:22:10.077Z,97.90
2024-04-15T07:25:12.264Z,97.70
2024-04-15T07:28:14.735Z,98.20
2024-04-15T07:31:17.008Z,98.60
2024-04-15T07:34:18.978Z,97.90
2024-04-15T07:37:21.011Z,98.30
2024-04-15T07:40:22.939Z,98.80
2024-04-15T07:43:25.148Z,97.80
2024-04-15T07:46:27.460Z,97.80
2024-04-15T07:49:29.503Z,99.30
2024-04-15T07:52:31.294Z,98.60
2024-04-15T07:55:33.188Z,98.40
2024-04-15T07:58:35.484Z,97.80
2024-04-15T08:01:37.424Z,98.40
2024-04-15T08:04:45.506Z,98.70
2024-04-15T08:07:47.478Z,99.80
2024-04-15T08:10:49.313Z,98.50
2024-04-15T08:13:51.745Z,97.70
2024-04-15T08:16:53.676Z,97.70
2024-04-15T08:19:55.585Z,98.30
2024-04-15T08:22:57.410Z,97.50
2024-04-15T08:25:59.242Z,98.00
2024-04-15T08:29:04.765Z,97.50
2024-04-15T08:32:06.739Z,97.10
2024-04-15T08:35:08.620Z,96.50
2024-04-15T08:38:10.847Z,97.00
2024-04-15T08:41:26.559Z,96.90
2024-04-15T08:44:28.868Z,95.20
2024-04-15T08:47:31.530Z,96.90
2024-04-15T08:50:33.453Z,96.60
2024-04-15T08:53:35.721Z,96.80
2024-04-15T08:56:43.682Z,95.60
2024-04-15T08:59:46.608Z,95.80
2024-04-15T09:02:51.701Z,95.90
2024-04-15T09:05:53.606Z,95.50
2024-04-15T09:08:55.423Z,96.20
2024-04-15T09:11:57.350Z,96.00
2024-04-15T09:14:59.746Z,96.30
2024-04-15T09:18:01.613Z,96.00
2024-04-15T09:21:05.867Z,95.60
2024-04-15T09:24:12.437Z,95.50
2024-04-15T09:27:14.208Z,95.10
2024-04-15T09:30:16.110Z,95.20
2024-04-15T09:33:22.931Z,94.90
2024-04-15T09:36:24.987Z,95.90
2024-04-15T09:39:28.858Z,95.50
2024-04-15T09:42:31.095Z,94.80
2024-04-15T09:45:33.163Z,94.60
2024-04-15T09:48:37.376Z,96.00
2024-04-15T09:51:42.618Z,94.90
2024-04-15T09:54:47.576Z,94.80
2024-04-15T09:57:52.324Z,95.00
2024-04-15T10:00:59.399Z,94.60
2024-04-15T10:04:04.565Z,93.80
2024-04-15T10:07:09.589Z,93.60
2024-04-15T10:10:11.805Z,94.30
2024-04-15T10:13:14.900Z,94.40
2024-04-15T10:16:35.476Z,95.20
2024-04-15T10:19:41.627Z,95.00
2024-04-15T10:22:43.448Z,95.70
2024-04-15T10:25:45.340Z,94.10
2024-04-15T10:28:47.376Z,94.30
2024-04-15T10:31:54.389Z,94.80
2024-04-15T10:35:02.441Z,92.50
2024-04-15T10:38:06.713Z,93.70
2024-04-15T10:41:08.820Z,93.20
2024-04-15T10:44:13.886Z,93.40
2024-04-15T10:47:18.380Z,93.30
2024-04-15T10:50:20.673Z,93.40
2024-04-15T10:53:24.860Z,92.80
2024-04-15T10:56:27.681Z,90.70
2024-04-15T10:59:30.451Z,93.20
2024-04-15T11:02:35.315Z,92.50
2024-04-15T11:05:37.711Z,92.90
2024-04-15T11:08:39.955Z,92.80
2024-04-15T11:11:43.846Z,92.90
2024-04-15T11:14:46.108Z,93.50
2024-04-15T11:17:51.415Z,92.80
2024-04-15T11:21:01.137Z,92.00
2024-04-15T11:24:03.599Z,92.60
2024-04-15T11:27:09.267Z,91.50
2024-04-15T11:30:15.286Z,92.10
2024-04-15T11:33:19.138Z,92.00
2024-04-15T11:36:21.172Z,91.70
2024-04-15T11:39:23.093Z,92.20
2024-04-15T11:42:25.108Z,92.90
2024-04-15T11:45:27.597Z,91.80
2024-04-15T11:48:29.734Z,92.60
2024-04-15T11:51:31.877Z,91.80
2024-04-15T11:54:33.713Z,91.30
2024-04-15T11:57:35.449Z,90.80
2024-04-15T12:00:37.319Z,90.60
2024-04-15T12:03:39.423Z,90.20
2024-04-15T12:06:45.176Z,90.40
2024-04-15T12:09:47.056Z,90.30
2024-04-15T12:12:48.962Z,90.90
2024-04-15T12:15:50.924Z,91.40
2024-04-15T12:18:53.973Z,91.20
2024-04-15T12:21:55.883Z,91.20
2024-04-15T12:25:06.111Z,91.50
2024-04-15T12:28:10.849Z,91.70
2024-04-15T12:31:14.533Z,91.60
2024-04-15T12:34:18.871Z,92.90
2024-04-15T12:37:21.103Z,92.00
2024-04-15T12:40:23.256Z,92.60
2024-04-15T12:43:26.561Z,92.10
2024-04-15T12:46:28.554Z,92.30
2024-04-15T12:49:36.064Z,92.50
2024-04-15T12:52:38.931Z,92.20
2024-04-15T12:55:47.462Z,92.00
2024-04-15T12:58:49.507Z,92.40
2024-04-15T13:02:02.410Z,92.60
2024-04-15T13:05:10.802Z,92.60
2024-04-15T13:08:13.313Z,93.10
2024-04-15T13:11:15.214Z,93.60
2024-04-15T13:17:34.223Z,93.50
2024-04-15T13:20:36.138Z,93.00
2024-04-15T13:23:38.776Z,92.50
2024-04-15T13:26:40.695Z,92.60
2024-04-15T13:29:43.538Z,92.00
2024-04-15T13:32:46.758Z,93.00
2024-04-15T13:35:48.993Z,92.00
2024-04-15T13:38:51.435Z,92.60
2024-04-15T13:41:53.370Z,92.30
2024-04-15T13:44:55.953Z,92.70
2024-04-15T13:47:58.454Z,92.40
2024-04-15T13:51:00.249Z,92.70
2024-04-15T13:54:02.857Z,92.30
2024-04-15T13:57:08.100Z,92.60
2024-04-15T14:00:12.170Z,93.00
2024-04-15T14:03:14.080Z,93.60
2024-04-15T14:06:15.996Z,94.50
2024-04-15T14:09:24.388Z,94.70
2024-04-15T14:12:26.527Z,94.50
2024-04-15T14:15:33.589Z,93.80
2024-04-15T14:22:08.903Z,95.20
2024-04-15T14:25:10.837Z,94.00
2024-04-15T14:28:12.673Z,94.10
2024-04-15T14:31:14.551Z,94.50
2024-04-15T14:34:16.524Z,94.50
2024-04-15T14:37:18.293Z,94.40
2024-04-15T14:40:23.500Z,94.50
2024-04-15T14:43:26.993Z,94.90
2024-04-15T14:46:29.098Z,95.20
2024-04-15T14:49:31.040Z,95.80
2024-04-15T14:52:32.822Z,97.10
2024-04-15T14:55:34.735Z,98.20
2024-04-15T14:58:36.506Z,98.70
2024-04-15T15:01:38.229Z,98.80
2024-04-15T15:04:40.187Z,98.60
2024-04-15T15:07:42.092Z,98.50
2024-04-15T15:10:43.938Z,98.70
2024-04-15T15:13:45.711Z,98.30
2024-04-15T15:16:48.027Z,98.20
2024-04-15T15:19:53.158Z,98.20
2024-04-15T15:22:55.387Z,98.20
2024-04-15T15:25:57.118Z,98.20
2024-04-15T15:28:59.896Z,98.20
2024-04-15T15:32:02.332Z,98.30
2024-04-15T15:35:04.884Z,98.50
2024-04-15T15:38:08.203Z,98.10
2024-04-15T15:41:09.908Z,98.20
2024-04-15T15:44:11.833Z,98.20
2024-04-15T15:47:13.552Z,98.10
2024-04-15T15:50:15.361Z,98.30
2024-04-15T15:53:17.062Z,98.20
2024-04-15T15:56:19.056Z,98.30
2024-04-15T15:59:20.810Z,98.40
2024-04-15T16:02:30.491Z,98.30
2024-04-15T16:05:38.914Z,98.50
2024-04-15T16:08:40.665Z,98.20
2024-04-15T16:11:46.721Z,98.00
2024-04-15T16:14:49.076Z,99.60
2024-04-15T16:17:50.843Z,97.70
2024-04-15T16:20:52.569Z,97.80
2024-04-15T16:23:54.377Z,97.80
2024-04-15T16:26:56.290Z,97.80
2024-04-15T16:29:58.020Z,98.10
2024-04-15T16:32:59.817Z,98.10
2024-04-15T16:36:03.319Z,98.20
2024-04-15T16:39:05.630Z,98.30
2024-04-15T16:42:07.514Z,98.30
2024-04-15T16:45:09.257Z,98.30
2024-04-15T16:48:11.093Z,98.40
2024-04-15T16:51:13.241Z,98.30
2024-04-15T16:54:15.043Z,97.60
2024-04-15T16:57:17.981Z,98.40
2024-04-15T17:00:19.894Z,98.50
2024-04-15T17:03:21.806Z,98.50
2024-04-15T17:06:24.187Z,98.50
2024-04-15T17:09:26.197Z,98.60
2024-04-15T17:12:28.065Z,98.70
2024-04-15T17:15:30.328Z,98.70
2024-04-15T17:18:34.553Z,99.10
2024-04-15T17:21:39.817Z,98.80
2024-04-15T17:24:41.653Z,99.90
2024-04-15T17:27:45.274Z,98.80
2024-04-15T17:30:47.455Z,99.30
2024-04-15T17:33:49.217Z,99.60
2024-04-15T17:36:51.001Z,99.00
2024-04-15T17:39:53.391Z,98.90
2024-04-15T17:42:55.959Z,98.90
2024-04-15T17:45:59.893Z,98.90
2024-04-15T17:49:02.052Z,99.20
2024-04-15T17:52:03.915Z,98.20
2024-04-15T17:55:07.276Z,97.10
2024-04-15T17:58:10.198Z,97.40
2024-04-15T18:01:12.318Z,98.10
2024-04-15T18:04:14.200Z,98.40
2024-04-15T18:07:16.007Z,98.80
2024-04-15T18:10:22.275Z,99.00
2024-04-15T18:13:24.208Z,98.60
2024-04-15T18:16:26.071Z,99.20
2024-04-15T18:19:27.912Z,99.60
2024-04-15T18:22:29.757Z,99.40
2024-04-15T18:25:31.608Z,99.40
2024-04-15T18:28:36.131Z,99.30
2024-04-15T18:31:38.592Z,99.30
2024-04-15T18:34:43.902Z,99.20
2024-04-15T18:37:45.770Z,98.60
2024-04-15T18:40:47.607Z,99.20
2024-04-15T18:43:49.392Z,99.10
2024-04-15T18:46:51.230Z,99.00
2024-04-15T18:49:53.298Z,98.90
2024-04-15T18:52:55.802Z,99.10
2024-04-15T18:55:57.590Z,99.20
2024-04-15T18:58:59.299Z,99.40
2024-04-15T19:02:01.063Z,99.50
2024-04-15T19:05:02.927Z,99.50
2024-04-15T19:08:05.196Z,99.90
2024-04-15T19:11:07.045Z,99.30
2024-04-15T19:14:08.990Z,99.50
2024-04-15T19:17:10.728Z,99.70
2024-04-15T19:20:12.592Z,99.20
2024-04-15T19:23:14.514Z,99.30
2024-04-15T19:26:16.450Z,99.80
2024-04-15T19:29:18.364Z,99.50
2024-04-15T19:32:20.450Z,99.30
2024-04-15T19:35:22.479Z,99.40
2024-04-15T19:38:24.256Z,99.40
2024-04-15T19:41:26.106Z,99.10
2024-04-15T19:44:27.919Z,99.20
2024-04-15T19:47:30.047Z,99.20
2024-04-15T19:50:32.566Z,98.80
2024-04-15T19:53:34.417Z,99.20
2024-04-15T19:56:36.411Z,99.10
2024-04-15T19:59:38.156Z,99.00
2024-04-15T20:02:40.165Z,99.20
2024-04-15T20:05:42.824Z,99.20
2024-04-15T20:08:44.682Z,99.30
2024-04-15T20:11:46.516Z,99.30
2024-04-15T20:14:48.462Z,99.30
2024-04-15T20:18:08.877Z,99.80
2024-04-15T20:21:10.710Z,98.90
2024-04-15T20:24:12.532Z,99.20
2024-04-15T20:27:14.350Z,99.90
2024-04-15T20:30:16.493Z,99.20
2024-04-15T20:33:18.358Z,99.20
2024-04-15T20:36:21.152Z,99.90
2024-04-15T20:39:22.984Z,99.50
2024-04-15T20:42:24.881Z,99.80
2024-04-15T20:45:28.807Z,99.90
2024-04-15T20:48:31.267Z,99.90
2024-04-15T20:51:33.076Z,99.90
2024-04-15T20:54:35.946Z,99.90
2024-04-15T20:57:37.841Z,99.70
2024-04-15T21:00:39.632Z,99.90
2024-04-15T21:03:42.129Z,99.90
2024-04-15T21:06:43.975Z,99.90
2024-04-15T21:09:45.836Z,99.90
2024-04-15T21:12:47.773Z,99.90
2024-04-15T21:15:49.647Z,99.90
2024-04-15T21:18:51.363Z,99.90
2024-04-15T21:21:57.885Z,99.80
2024-04-15T21:24:59.748Z,99.90
2024-04-15T21:28:01.580Z,99.90
2024-04-15T21:31:14.189Z,99.90
2024-04-15T21:34:16.102Z,99.80
2024-04-15T21:37:18.485Z,99.90
2024-04-15T21:40:23.296Z,99.90
2024-04-15T21:43:27.382Z,99.30
2024-04-15T21:46:30.070Z,99.90
2024-04-15T21:49:34.787Z,99.90
2024-04-15T21:52:36.589Z,99.80
2024-04-15T21:55:38.694Z,99.90
2024-04-15T21:58:45.140Z,99.90
2024-04-15T22:01:49.518Z,99.90
2024-04-15T22:04:59.984Z,99.90
2024-04-15T22:11:21.296Z,99.90
2024-04-15T22:14:24.621Z,99.90
2024-04-15T22:20:53.772Z,99.90
2024-04-15T22:24:09.194Z,99.90
2024-04-15T22:27:12.266Z,99.90
2024-04-15T22:30:22.742Z,99.90
2024-04-15T22:33:24.803Z,99.90
2024-04-15T22:36:55.969Z,99.90
2024-04-15T22:39:58.448Z,99.90
2024-04-15T22:43:00.420Z,99.90
2024-04-15T22:46:05.395Z,99.90
2024-04-15T22:49:07.290Z,99.90
2024-04-15T22:52:19.836Z,99.90
2024-04-15T22:55:24.355Z,99.90
2024-04-15T22:58:28.403Z,99.90
2024-04-15T23:01:30.372Z,99.90
2024-04-15T23:04:32.182Z,99.90
2024-04-15T23:07:36.969Z,99.90
2024-04-15T23:10:42.434Z,99.90
2024-04-15T23:17:00.458Z,99.90
2024-04-15T23:20:04.778Z,99.90
2024-04-15T23:23:06.522Z,99.90
2024-04-15T23:29:37.196Z,99.90
2024-04-15T23:32:40.296Z,99.90
2024-04-15T23:35:42.118Z,99.90
2024-04-15T23:38:43.896Z,99.90
2024-04-15T23:41:45.596Z,99.90
2024-04-15T23:44:47.342Z,99.90
2024-04-15T23:47:49.106Z,99.90
2024-04-15T23:50:51.062Z,99.90
2024-04-15T23:53:53.035Z,99.90
2024-04-15T23:56:54.745Z,99.90
2024-04-15T23:59:56.539Z,99.90
